sensor_id;sensor_type;location;lat;lon;timestamp;temperature;humidity
21255;DHT22;10785;50.674;17.954;2022-08-20T00:02:25;19.60;99.90
21255;DHT22;10785;50.674;17.954;2022-08-20T00:04:53;19.60;99.90
21255;DHT22;10785;50.674;17.954;2022-08-20T00:07:22;19.60;99.90
21255;DHT22;10785;50.674;17.954;2022-08-20T00:09:50;19.50;99.90
21255;DHT22;10785;50.674;17.954;2022-08-20T00:12:19;19.60;99.90
21255;DHT22;10785;50.674;17.954;2022-08-20T00:14:49;19.60;99.90
21255;DHT22;10785;50.674;17.954;2022-08-20T00:17:17;19.50;99.90
21255;DHT22;10785;50.674;17.954;2022-08-20T00:19:46;19.60;99.90
21255;DHT22;10785;50.674;17.954;2022-08-20T00:22:14;19.60;99.90
21255;DHT22;10785;50.674;17.954;2022-08-20T00:24:43;19.60;99.90
21255;DHT22;10785;50.674;17.954;2022-08-20T00:27:11;19.60;99.90
21255;DHT22;10785;50.674;17.954;2022-08-20T00:29:40;19.60;99.90
21255;DHT22;10785;50.674;17.954;2022-08-20T00:32:10;19.50;99.90
21255;DHT22;10785;50.674;17.954;2022-08-20T00:34:38;19.50;99.90
21255;DHT22;10785;50.674;17.954;2022-08-20T00:37:09;19.50;99.90
21255;DHT22;10785;50.674;17.954;2022-08-20T00:39:37;19.60;99.90
21255;DHT22;10785;50.674;17.954;2022-08-20T00:42:07;19.60;99.90
21255;DHT22;10785;50.674;17.954;2022-08-20T00:44:35;19.60;99.90
21255;DHT22;10785;50.674;17.954;2022-08-20T00:47:04;19.60;99.90
21255;DHT22;10785;50.674;17.954;2022-08-20T00:49:34;19.60;99.90
21255;DHT22;10785;50.674;17.954;2022-08-20T00:52:07;19.50;99.90
21255;DHT22;10785;50.674;17.954;2022-08-20T00:54:39;19.60;99.90
21255;DHT22;10785;50.674;17.954;2022-08-20T00:57:10;19.60;99.90
21255;DHT22;10785;50.674;17.954;2022-08-20T00:59:41;19.60;99.90
21255;DHT22;10785;50.674;17.954;2022-08-20T01:02:12;19.60;99.90
21255;DHT22;10785;50.674;17.954;2022-08-20T01:04:43;19.60;99.90
21255;DHT22;10785;50.674;17.954;2022-08-20T01:07:14;19.60;99.90
21255;DHT22;10785;50.674;17.954;2022-08-20T01:09:43;19.60;99.90
21255;DHT22;10785;50.674;17.954;2022-08-20T01:12:27;19.70;99.90
21255;DHT22;10785;50.674;17.954;2022-08-20T01:14:57;19.60;99.90
21255;DHT22;10785;50.674;17.954;2022-08-20T01:17:28;19.60;99.90
21255;DHT22;10785;50.674;17.954;2022-08-20T01:20:07;19.70;99.90
21255;DHT22;10785;50.674;17.954;2022-08-20T01:22:42;19.70;99.90
21255;DHT22;10785;50.674;17.954;2022-08-20T01:25:37;19.70;99.90
21255;DHT22;10785;50.674;17.954;2022-08-20T01:28:06;19.60;99.90
21255;DHT22;10785;50.674;17.954;2022-08-20T01:30:36;19.70;99.90
21255;DHT22;10785;50.674;17.954;2022-08-20T01:33:05;19.60;99.90
21255;DHT22;10785;50.674;17.954;2022-08-20T01:35:35;19.70;99.90
21255;DHT22;10785;50.674;17.954;2022-08-20T01:38:04;19.70;99.90
21255;DHT22;10785;50.674;17.954;2022-08-20T01:41:07;19.70;99.90
21255;DHT22;10785;50.674;17.954;2022-08-20T01:43:37;19.80;99.90
21255;DHT22;10785;50.674;17.954;2022-08-20T01:46:09;19.70;99.90
21255;DHT22;10785;50.674;17.954;2022-08-20T01:48:41;19.80;99.90
21255;DHT22;10785;50.674;17.954;2022-08-20T01:51:12;19.80;99.90
21255;DHT22;10785;50.674;17.954;2022-08-20T01:53:43;19.80;99.90
21255;DHT22;10785;50.674;17.954;2022-08-20T01:56:18;19.80;99.90
21255;DHT22;10785;50.674;17.954;2022-08-20T01:58:51;19.80;99.90
21255;DHT22;10785;50.674;17.954;2022-08-20T02:01:28;19.80;99.90
21255;DHT22;10785;50.674;17.954;2022-08-20T02:04:12;19.90;99.90
21255;DHT22;10785;50.674;17.954;2022-08-20T02:06:43;19.90;99.90
21255;DHT22;10785;50.674;17.954;2022-08-20T02:09:23;20.00;99.90
21255;DHT22;10785;50.674;17.954;2022-08-20T02:11:54;20.10;99.90
21255;DHT22;10785;50.674;17.954;2022-08-20T02:14:24;20.00;99.90
21255;DHT22;10785;50.674;17.954;2022-08-20T02:16:53;19.90;99.90
21255;DHT22;10785;50.674;17.954;2022-08-20T02:19:29;19.90;99.90
21255;DHT22;10785;50.674;17.954;2022-08-20T02:22:02;19.90;99.90
21255;DHT22;10785;50.674;17.954;2022-08-20T02:24:32;19.90;99.90
21255;DHT22;10785;50.674;17.954;2022-08-20T02:27:03;19.90;99.90
21255;DHT22;10785;50.674;17.954;2022-08-20T02:29:31;19.90;99.90
21255;DHT22;10785;50.674;17.954;2022-08-20T02:32:00;19.90;99.90
21255;DHT22;10785;50.674;17.954;2022-08-20T02:34:48;19.90;99.90
21255;DHT22;10785;50.674;17.954;2022-08-20T02:37:17;19.90;99.90
21255;DHT22;10785;50.674;17.954;2022-08-20T02:39:46;19.80;99.90
21255;DHT22;10785;50.674;17.954;2022-08-20T02:42:16;19.80;99.90
21255;DHT22;10785;50.674;17.954;2022-08-20T02:44:44;19.80;99.90
21255;DHT22;10785;50.674;17.954;2022-08-20T02:47:13;19.70;99.90
21255;DHT22;10785;50.674;17.954;2022-08-20T02:49:41;19.80;99.90
21255;DHT22;10785;50.674;17.954;2022-08-20T02:52:10;19.80;99.90
21255;DHT22;10785;50.674;17.954;2022-08-20T02:54:38;19.80;99.90
21255;DHT22;10785;50.674;17.954;2022-08-20T02:57:11;19.80;99.90
21255;DHT22;10785;50.674;17.954;2022-08-20T02:59:42;19.80;99.90
21255;DHT22;10785;50.674;17.954;2022-08-20T03:02:12;19.80;99.90
21255;DHT22;10785;50.674;17.954;2022-08-20T03:04:41;19.80;99.90
21255;DHT22;10785;50.674;17.954;2022-08-20T03:07:10;19.80;99.90
21255;DHT22;10785;50.674;17.954;2022-08-20T03:09:39;19.80;99.90
21255;DHT22;10785;50.674;17.954;2022-08-20T03:12:08;19.80;99.90
21255;DHT22;10785;50.674;17.954;2022-08-20T03:14:37;19.80;99.90
21255;DHT22;10785;50.674;17.954;2022-08-20T03:17:07;19.70;99.90
21255;DHT22;10785;50.674;17.954;2022-08-20T03:19:35;19.70;99.90
21255;DHT22;10785;50.674;17.954;2022-08-20T03:22:04;19.70;99.90
21255;DHT22;10785;50.674;17.954;2022-08-20T03:24:33;19.70;99.90
21255;DHT22;10785;50.674;17.954;2022-08-20T03:27:01;19.70;99.90
21255;DHT22;10785;50.674;17.954;2022-08-20T03:29:30;19.70;99.90
21255;DHT22;10785;50.674;17.954;2022-08-20T03:31:59;19.70;99.90
21255;DHT22;10785;50.674;17.954;2022-08-20T03:34:34;19.70;99.90
21255;DHT22;10785;50.674;17.954;2022-08-20T03:37:03;19.70;99.90
21255;DHT22;10785;50.674;17.954;2022-08-20T03:39:33;19.70;99.90
21255;DHT22;10785;50.674;17.954;2022-08-20T03:42:02;19.70;99.90
21255;DHT22;10785;50.674;17.954;2022-08-20T03:44:30;19.80;99.90
21255;DHT22;10785;50.674;17.954;2022-08-20T03:46:59;19.80;99.90
21255;DHT22;10785;50.674;17.954;2022-08-20T03:49:27;19.80;99.90
21255;DHT22;10785;50.674;17.954;2022-08-20T03:51:57;19.80;99.90
21255;DHT22;10785;50.674;17.954;2022-08-20T03:54:27;19.80;99.90
21255;DHT22;10785;50.674;17.954;2022-08-20T03:56:59;19.90;99.90
21255;DHT22;10785;50.674;17.954;2022-08-20T03:59:38;19.90;99.90
21255;DHT22;10785;50.674;17.954;2022-08-20T04:02:07;19.80;99.90
21255;DHT22;10785;50.674;17.954;2022-08-20T04:04:37;19.90;99.90
21255;DHT22;10785;50.674;17.954;2022-08-20T04:07:15;19.90;99.90
21255;DHT22;10785;50.674;17.954;2022-08-20T04:09:45;19.90;99.90
21255;DHT22;10785;50.674;17.954;2022-08-20T04:12:13;20.00;99.90
21255;DHT22;10785;50.674;17.954;2022-08-20T04:14:42;20.00;99.90
21255;DHT22;10785;50.674;17.954;2022-08-20T04:17:11;20.00;99.90
21255;DHT22;10785;50.674;17.954;2022-08-20T04:19:40;20.00;99.90
21255;DHT22;10785;50.674;17.954;2022-08-20T04:22:11;20.00;99.90
21255;DHT22;10785;50.674;17.954;2022-08-20T04:24:41;20.10;99.90
21255;DHT22;10785;50.674;17.954;2022-08-20T04:27:11;20.00;99.90
21255;DHT22;10785;50.674;17.954;2022-08-20T04:29:41;20.00;99.90
21255;DHT22;10785;50.674;17.954;2022-08-20T04:32:10;20.10;99.90
21255;DHT22;10785;50.674;17.954;2022-08-20T04:34:43;20.10;99.90
21255;DHT22;10785;50.674;17.954;2022-08-20T04:37:18;20.10;99.90
21255;DHT22;10785;50.674;17.954;2022-08-20T04:39:47;20.10;99.90
21255;DHT22;10785;50.674;17.954;2022-08-20T04:42:36;20.10;99.90
21255;DHT22;10785;50.674;17.954;2022-08-20T04:45:06;20.10;99.90
21255;DHT22;10785;50.674;17.954;2022-08-20T04:47:35;20.10;99.90
21255;DHT22;10785;50.674;17.954;2022-08-20T04:50:07;20.10;99.90
21255;DHT22;10785;50.674;17.954;2022-08-20T04:52:38;20.10;99.90
21255;DHT22;10785;50.674;17.954;2022-08-20T04:55:07;20.10;99.90
21255;DHT22;10785;50.674;17.954;2022-08-20T04:57:36;20.10;99.90
21255;DHT22;10785;50.674;17.954;2022-08-20T05:00:09;20.10;99.90
21255;DHT22;10785;50.674;17.954;2022-08-20T05:02:39;20.20;99.90
21255;DHT22;10785;50.674;17.954;2022-08-20T05:05:08;20.20;99.90
21255;DHT22;10785;50.674;17.954;2022-08-20T05:07:41;20.20;99.90
21255;DHT22;10785;50.674;17.954;2022-08-20T05:10:11;20.30;99.90
21255;DHT22;10785;50.674;17.954;2022-08-20T05:12:41;20.40;99.90
21255;DHT22;10785;50.674;17.954;2022-08-20T05:15:23;20.40;99.90
21255;DHT22;10785;50.674;17.954;2022-08-20T05:17:58;20.40;99.90
21255;DHT22;10785;50.674;17.954;2022-08-20T05:20:30;20.50;99.90
21255;DHT22;10785;50.674;17.954;2022-08-20T05:23:02;20.50;99.90
21255;DHT22;10785;50.674;17.954;2022-08-20T05:25:30;20.60;99.90
21255;DHT22;10785;50.674;17.954;2022-08-20T05:28:01;20.70;99.90
21255;DHT22;10785;50.674;17.954;2022-08-20T05:30:31;20.80;99.90
21255;DHT22;10785;50.674;17.954;2022-08-20T05:33:02;20.90;99.90
21255;DHT22;10785;50.674;17.954;2022-08-20T05:35:33;20.90;99.90
21255;DHT22;10785;50.674;17.954;2022-08-20T05:38:07;21.00;99.90
21255;DHT22;10785;50.674;17.954;2022-08-20T05:40:38;21.10;99.90
21255;DHT22;10785;50.674;17.954;2022-08-20T05:43:07;21.30;99.90
21255;DHT22;10785;50.674;17.954;2022-08-20T05:45:38;21.70;99.90
21255;DHT22;10785;50.674;17.954;2022-08-20T05:48:09;21.90;99.90
21255;DHT22;10785;50.674;17.954;2022-08-20T05:50:39;22.40;99.90
21255;DHT22;10785;50.674;17.954;2022-08-20T05:53:10;22.80;99.90
21255;DHT22;10785;50.674;17.954;2022-08-20T05:55:38;23.00;99.90
21255;DHT22;10785;50.674;17.954;2022-08-20T05:58:18;23.40;99.90
21255;DHT22;10785;50.674;17.954;2022-08-20T06:00:47;23.80;99.90
21255;DHT22;10785;50.674;17.954;2022-08-20T06:03:16;24.40;99.90
21255;DHT22;10785;50.674;17.954;2022-08-20T06:06:03;24.60;99.90
21255;DHT22;10785;50.674;17.954;2022-08-20T06:08:53;24.80;99.90
21255;DHT22;10785;50.674;17.954;2022-08-20T06:11:21;24.90;99.90
21255;DHT22;10785;50.674;17.954;2022-08-20T06:13:50;25.10;99.90
21255;DHT22;10785;50.674;17.954;2022-08-20T06:16:18;25.30;99.90
21255;DHT22;10785;50.674;17.954;2022-08-20T06:18:47;25.50;99.90
21255;DHT22;10785;50.674;17.954;2022-08-20T06:21:16;24.90;99.90
21255;DHT22;10785;50.674;17.954;2022-08-20T06:23:44;24.60;99.90
21255;DHT22;10785;50.674;17.954;2022-08-20T06:26:29;24.50;99.90
21255;DHT22;10785;50.674;17.954;2022-08-20T06:29:03;24.20;99.90
21255;DHT22;10785;50.674;17.954;2022-08-20T06:31:32;23.90;99.90
21255;DHT22;10785;50.674;17.954;2022-08-20T06:34:06;23.60;99.90
21255;DHT22;10785;50.674;17.954;2022-08-20T06:36:36;23.20;99.90
21255;DHT22;10785;50.674;17.954;2022-08-20T06:39:05;23.00;99.90
21255;DHT22;10785;50.674;17.954;2022-08-20T06:41:35;23.00;99.90
21255;DHT22;10785;50.674;17.954;2022-08-20T06:44:04;22.80;99.90
21255;DHT22;10785;50.674;17.954;2022-08-20T06:46:34;22.60;99.90
21255;DHT22;10785;50.674;17.954;2022-08-20T06:49:03;22.70;99.90
21255;DHT22;10785;50.674;17.954;2022-08-20T06:51:32;22.80;99.90
21255;DHT22;10785;50.674;17.954;2022-08-20T06:54:03;22.90;99.90
21255;DHT22;10785;50.674;17.954;2022-08-20T06:56:32;22.80;99.90
21255;DHT22;10785;50.674;17.954;2022-08-20T06:59:02;22.90;99.90
21255;DHT22;10785;50.674;17.954;2022-08-20T07:01:31;22.90;99.90
21255;DHT22;10785;50.674;17.954;2022-08-20T07:03:59;22.80;99.90
21255;DHT22;10785;50.674;17.954;2022-08-20T07:06:28;22.70;99.90
21255;DHT22;10785;50.674;17.954;2022-08-20T07:08:57;22.70;99.90
21255;DHT22;10785;50.674;17.954;2022-08-20T07:11:25;22.80;99.90
21255;DHT22;10785;50.674;17.954;2022-08-20T07:13:55;23.10;99.90
21255;DHT22;10785;50.674;17.954;2022-08-20T07:16:26;23.30;99.90
21255;DHT22;10785;50.674;17.954;2022-08-20T07:18:55;23.50;99.90
21255;DHT22;10785;50.674;17.954;2022-08-20T07:21:24;23.60;99.90
21255;DHT22;10785;50.674;17.954;2022-08-20T07:23:52;23.60;99.90
21255;DHT22;10785;50.674;17.954;2022-08-20T07:26:22;23.70;99.90
21255;DHT22;10785;50.674;17.954;2022-08-20T07:28:50;23.80;99.90
21255;DHT22;10785;50.674;17.954;2022-08-20T07:31:19;23.80;99.90
21255;DHT22;10785;50.674;17.954;2022-08-20T07:34:09;23.80;99.90
21255;DHT22;10785;50.674;17.954;2022-08-20T07:36:38;23.90;99.90
21255;DHT22;10785;50.674;17.954;2022-08-20T07:39:07;24.00;99.90
21255;DHT22;10785;50.674;17.954;2022-08-20T07:41:36;23.80;99.90
21255;DHT22;10785;50.674;17.954;2022-08-20T07:44:04;23.90;99.90
21255;DHT22;10785;50.674;17.954;2022-08-20T07:46:33;23.90;99.90
21255;DHT22;10785;50.674;17.954;2022-08-20T07:49:01;23.90;99.90
21255;DHT22;10785;50.674;17.954;2022-08-20T07:51:35;24.20;99.90
21255;DHT22;10785;50.674;17.954;2022-08-20T07:54:04;24.40;99.90
21255;DHT22;10785;50.674;17.954;2022-08-20T07:56:33;24.80;99.90
21255;DHT22;10785;50.674;17.954;2022-08-20T07:59:02;24.90;99.90
21255;DHT22;10785;50.674;17.954;2022-08-20T08:01:32;24.90;99.90
21255;DHT22;10785;50.674;17.954;2022-08-20T08:04:01;24.50;99.90
21255;DHT22;10785;50.674;17.954;2022-08-20T08:06:31;24.10;99.90
21255;DHT22;10785;50.674;17.954;2022-08-20T08:09:06;24.00;99.90
21255;DHT22;10785;50.674;17.954;2022-08-20T08:11:38;23.80;99.90
21255;DHT22;10785;50.674;17.954;2022-08-20T08:14:14;23.90;99.90
21255;DHT22;10785;50.674;17.954;2022-08-20T08:16:45;24.10;99.90
21255;DHT22;10785;50.674;17.954;2022-08-20T08:19:15;24.00;99.90
21255;DHT22;10785;50.674;17.954;2022-08-20T08:21:45;24.20;99.90
21255;DHT22;10785;50.674;17.954;2022-08-20T08:24:15;24.30;99.90
21255;DHT22;10785;50.674;17.954;2022-08-20T08:26:49;24.30;99.90
21255;DHT22;10785;50.674;17.954;2022-08-20T08:29:18;24.40;99.90
21255;DHT22;10785;50.674;17.954;2022-08-20T08:31:47;24.50;99.90
21255;DHT22;10785;50.674;17.954;2022-08-20T08:34:15;24.60;99.90
21255;DHT22;10785;50.674;17.954;2022-08-20T08:36:44;24.80;99.90
21255;DHT22;10785;50.674;17.954;2022-08-20T08:39:13;24.90;99.90
21255;DHT22;10785;50.674;17.954;2022-08-20T08:41:44;24.80;99.90
21255;DHT22;10785;50.674;17.954;2022-08-20T08:44:18;24.60;99.90
21255;DHT22;10785;50.674;17.954;2022-08-20T08:46:54;24.40;99.90
21255;DHT22;10785;50.674;17.954;2022-08-20T08:49:26;24.20;99.90
21255;DHT22;10785;50.674;17.954;2022-08-20T08:52:06;24.20;99.90
21255;DHT22;10785;50.674;17.954;2022-08-20T08:54:42;24.20;99.90
21255;DHT22;10785;50.674;17.954;2022-08-20T08:57:12;23.90;99.90
21255;DHT22;10785;50.674;17.954;2022-08-20T08:59:43;23.70;99.90
21255;DHT22;10785;50.674;17.954;2022-08-20T09:02:32;24.10;99.90
21255;DHT22;10785;50.674;17.954;2022-08-20T09:05:10;24.20;99.90
21255;DHT22;10785;50.674;17.954;2022-08-20T09:07:42;23.90;99.90
21255;DHT22;10785;50.674;17.954;2022-08-20T09:10:14;24.00;99.90
21255;DHT22;10785;50.674;17.954;2022-08-20T09:12:49;24.30;99.90
21255;DHT22;10785;50.674;17.954;2022-08-20T09:15:18;24.50;99.90
21255;DHT22;10785;50.674;17.954;2022-08-20T09:17:48;24.80;99.90
21255;DHT22;10785;50.674;17.954;2022-08-20T09:20:17;25.00;99.90
21255;DHT22;10785;50.674;17.954;2022-08-20T09:22:52;24.60;99.90
21255;DHT22;10785;50.674;17.954;2022-08-20T09:25:22;24.50;99.90
21255;DHT22;10785;50.674;17.954;2022-08-20T09:27:53;24.40;99.90
21255;DHT22;10785;50.674;17.954;2022-08-20T09:30:21;24.30;99.90
21255;DHT22;10785;50.674;17.954;2022-08-20T09:32:50;24.30;99.90
21255;DHT22;10785;50.674;17.954;2022-08-20T09:35:21;24.40;99.90
21255;DHT22;10785;50.674;17.954;2022-08-20T09:37:50;24.60;99.90
21255;DHT22;10785;50.674;17.954;2022-08-20T09:40:19;24.30;99.90
21255;DHT22;10785;50.674;17.954;2022-08-20T09:42:49;24.30;99.90
21255;DHT22;10785;50.674;17.954;2022-08-20T09:45:22;24.40;99.90
21255;DHT22;10785;50.674;17.954;2022-08-20T09:47:51;24.50;99.90
21255;DHT22;10785;50.674;17.954;2022-08-20T09:50:30;24.50;99.90
21255;DHT22;10785;50.674;17.954;2022-08-20T09:53:00;24.30;99.90
21255;DHT22;10785;50.674;17.954;2022-08-20T09:55:32;24.40;99.90
21255;DHT22;10785;50.674;17.954;2022-08-20T09:58:08;24.80;99.90
21255;DHT22;10785;50.674;17.954;2022-08-20T10:00:39;24.80;99.90
21255;DHT22;10785;50.674;17.954;2022-08-20T10:03:08;24.60;99.90
21255;DHT22;10785;50.674;17.954;2022-08-20T10:05:36;24.60;99.90
21255;DHT22;10785;50.674;17.954;2022-08-20T10:08:05;24.60;99.90
21255;DHT22;10785;50.674;17.954;2022-08-20T10:10:34;24.80;99.90
21255;DHT22;10785;50.674;17.954;2022-08-20T10:13:04;24.90;99.90
21255;DHT22;10785;50.674;17.954;2022-08-20T10:15:36;24.90;99.90
21255;DHT22;10785;50.674;17.954;2022-08-20T10:18:07;24.90;99.90
21255;DHT22;10785;50.674;17.954;2022-08-20T10:20:38;24.90;99.90
21255;DHT22;10785;50.674;17.954;2022-08-20T10:23:07;24.60;99.90
21255;DHT22;10785;50.674;17.954;2022-08-20T10:25:37;24.70;99.90
21255;DHT22;10785;50.674;17.954;2022-08-20T10:28:07;24.80;99.90
21255;DHT22;10785;50.674;17.954;2022-08-20T10:30:35;24.80;99.90
21255;DHT22;10785;50.674;17.954;2022-08-20T10:33:05;24.90;99.90
21255;DHT22;10785;50.674;17.954;2022-08-20T10:35:33;24.80;99.90
21255;DHT22;10785;50.674;17.954;2022-08-20T10:38:02;24.60;99.90
21255;DHT22;10785;50.674;17.954;2022-08-20T10:40:30;24.40;99.90
21255;DHT22;10785;50.674;17.954;2022-08-20T10:42:59;24.40;99.90
21255;DHT22;10785;50.674;17.954;2022-08-20T10:45:29;24.60;99.90
21255;DHT22;10785;50.674;17.954;2022-08-20T10:47:58;24.70;99.90
21255;DHT22;10785;50.674;17.954;2022-08-20T10:50:27;24.70;99.90
21255;DHT22;10785;50.674;17.954;2022-08-20T10:52:57;24.40;99.90
21255;DHT22;10785;50.674;17.954;2022-08-20T10:55:25;24.20;99.90
21255;DHT22;10785;50.674;17.954;2022-08-20T10:57:54;24.20;99.90
21255;DHT22;10785;50.674;17.954;2022-08-20T11:00:22;24.30;99.90
21255;DHT22;10785;50.674;17.954;2022-08-20T11:02:52;24.30;99.90
21255;DHT22;10785;50.674;17.954;2022-08-20T11:05:21;24.10;99.90
21255;DHT22;10785;50.674;17.954;2022-08-20T11:07:50;24.10;99.90
21255;DHT22;10785;50.674;17.954;2022-08-20T11:10:23;24.00;99.90
21255;DHT22;10785;50.674;17.954;2022-08-20T11:12:52;24.10;99.90
21255;DHT22;10785;50.674;17.954;2022-08-20T11:15:20;24.10;99.90
21255;DHT22;10785;50.674;17.954;2022-08-20T11:17:49;24.00;99.90
21255;DHT22;10785;50.674;17.954;2022-08-20T11:20:20;24.00;99.90
21255;DHT22;10785;50.674;17.954;2022-08-20T11:22:51;24.20;99.90
21255;DHT22;10785;50.674;17.954;2022-08-20T11:25:20;24.20;99.90
21255;DHT22;10785;50.674;17.954;2022-08-20T11:27:50;24.30;99.90
21255;DHT22;10785;50.674;17.954;2022-08-20T11:30:22;24.50;99.90
21255;DHT22;10785;50.674;17.954;2022-08-20T11:32:51;24.50;99.90
21255;DHT22;10785;50.674;17.954;2022-08-20T11:35:22;24.50;99.90
21255;DHT22;10785;50.674;17.954;2022-08-20T11:38:10;24.50;99.90
21255;DHT22;10785;50.674;17.954;2022-08-20T11:40:39;24.50;99.90
21255;DHT22;10785;50.674;17.954;2022-08-20T11:43:07;24.40;99.90
21255;DHT22;10785;50.674;17.954;2022-08-20T11:45:42;24.30;99.90
21255;DHT22;10785;50.674;17.954;2022-08-20T11:48:11;24.40;99.90
21255;DHT22;10785;50.674;17.954;2022-08-20T11:50:41;24.50;99.90
21255;DHT22;10785;50.674;17.954;2022-08-20T11:53:10;24.50;99.90
21255;DHT22;10785;50.674;17.954;2022-08-20T11:55:38;24.60;99.90
21255;DHT22;10785;50.674;17.954;2022-08-20T11:58:09;24.70;99.90
21255;DHT22;10785;50.674;17.954;2022-08-20T12:00:38;24.70;99.90
21255;DHT22;10785;50.674;17.954;2022-08-20T12:03:07;24.70;99.90
21255;DHT22;10785;50.674;17.954;2022-08-20T12:05:42;24.60;99.90
21255;DHT22;10785;50.674;17.954;2022-08-20T12:08:13;24.50;99.90
21255;DHT22;10785;50.674;17.954;2022-08-20T12:10:55;24.30;99.90
21255;DHT22;10785;50.674;17.954;2022-08-20T12:13:25;24.20;99.90
21255;DHT22;10785;50.674;17.954;2022-08-20T12:16:14;24.30;99.90
21255;DHT22;10785;50.674;17.954;2022-08-20T12:18:42;24.20;99.90
21255;DHT22;10785;50.674;17.954;2022-08-20T12:21:13;24.00;99.90
21255;DHT22;10785;50.674;17.954;2022-08-20T12:23:42;24.00;99.90
21255;DHT22;10785;50.674;17.954;2022-08-20T12:26:11;24.10;99.90
21255;DHT22;10785;50.674;17.954;2022-08-20T12:28:40;24.20;99.90
21255;DHT22;10785;50.674;17.954;2022-08-20T12:31:09;24.30;99.90
21255;DHT22;10785;50.674;17.954;2022-08-20T12:33:37;24.50;99.90
21255;DHT22;10785;50.674;17.954;2022-08-20T12:36:06;24.70;99.90
21255;DHT22;10785;50.674;17.954;2022-08-20T12:38:36;24.70;99.90
21255;DHT22;10785;50.674;17.954;2022-08-20T12:41:05;24.90;99.90
21255;DHT22;10785;50.674;17.954;2022-08-20T12:43:34;24.80;99.90
21255;DHT22;10785;50.674;17.954;2022-08-20T12:46:02;24.90;99.90
21255;DHT22;10785;50.674;17.954;2022-08-20T12:48:31;25.10;99.90
21255;DHT22;10785;50.674;17.954;2022-08-20T12:50:59;25.20;99.90
21255;DHT22;10785;50.674;17.954;2022-08-20T12:53:28;25.20;99.90
21255;DHT22;10785;50.674;17.954;2022-08-20T12:55:58;25.30;99.90
21255;DHT22;10785;50.674;17.954;2022-08-20T12:58:28;25.50;99.90
21255;DHT22;10785;50.674;17.954;2022-08-20T13:00:57;25.50;99.90
21255;DHT22;10785;50.674;17.954;2022-08-20T13:03:25;25.60;99.90
21255;DHT22;10785;50.674;17.954;2022-08-20T13:06:00;25.50;99.90
21255;DHT22;10785;50.674;17.954;2022-08-20T13:08:28;25.50;99.90
21255;DHT22;10785;50.674;17.954;2022-08-20T13:11:01;25.50;99.90
21255;DHT22;10785;50.674;17.954;2022-08-20T13:13:29;25.50;99.90
21255;DHT22;10785;50.674;17.954;2022-08-20T13:15:58;25.50;99.90
21255;DHT22;10785;50.674;17.954;2022-08-20T13:18:27;25.50;99.90
21255;DHT22;10785;50.674;17.954;2022-08-20T13:20:55;25.70;99.90
21255;DHT22;10785;50.674;17.954;2022-08-20T13:23:24;25.60;99.90
21255;DHT22;10785;50.674;17.954;2022-08-20T13:25:53;25.50;99.90
21255;DHT22;10785;50.674;17.954;2022-08-20T13:28:23;25.50;99.90
21255;DHT22;10785;50.674;17.954;2022-08-20T13:30:51;25.60;99.90
21255;DHT22;10785;50.674;17.954;2022-08-20T13:33:20;25.90;99.90
21255;DHT22;10785;50.674;17.954;2022-08-20T13:35:48;26.00;99.90
21255;DHT22;10785;50.674;17.954;2022-08-20T13:38:17;26.00;99.90
21255;DHT22;10785;50.674;17.954;2022-08-20T13:40:46;25.90;99.90
21255;DHT22;10785;50.674;17.954;2022-08-20T13:43:15;25.90;99.90
21255;DHT22;10785;50.674;17.954;2022-08-20T13:45:45;26.00;99.90
21255;DHT22;10785;50.674;17.954;2022-08-20T13:48:13;26.10;99.90
21255;DHT22;10785;50.674;17.954;2022-08-20T13:50:42;26.00;99.90
21255;DHT22;10785;50.674;17.954;2022-08-20T13:53:14;25.90;99.90
21255;DHT22;10785;50.674;17.954;2022-08-20T13:55:44;25.90;99.90
21255;DHT22;10785;50.674;17.954;2022-08-20T13:58:13;26.00;99.90
21255;DHT22;10785;50.674;17.954;2022-08-20T14:00:45;26.00;99.90
21255;DHT22;10785;50.674;17.954;2022-08-20T14:03:14;26.00;99.90
21255;DHT22;10785;50.674;17.954;2022-08-20T14:05:51;26.10;99.90
21255;DHT22;10785;50.674;17.954;2022-08-20T14:08:21;26.00;99.90
21255;DHT22;10785;50.674;17.954;2022-08-20T14:10:52;26.10;99.90
21255;DHT22;10785;50.674;17.954;2022-08-20T14:13:24;26.20;99.90
21255;DHT22;10785;50.674;17.954;2022-08-20T14:15:55;26.20;99.90
21255;DHT22;10785;50.674;17.954;2022-08-20T14:18:24;26.20;99.90
21255;DHT22;10785;50.674;17.954;2022-08-20T14:20:52;26.20;99.90
21255;DHT22;10785;50.674;17.954;2022-08-20T14:23:21;26.20;99.90
21255;DHT22;10785;50.674;17.954;2022-08-20T14:25:50;26.00;99.90
21255;DHT22;10785;50.674;17.954;2022-08-20T14:28:21;26.00;99.90
21255;DHT22;10785;50.674;17.954;2022-08-20T14:30:50;26.00;99.90
21255;DHT22;10785;50.674;17.954;2022-08-20T14:33:22;26.00;99.90
21255;DHT22;10785;50.674;17.954;2022-08-20T14:35:51;26.00;99.90
21255;DHT22;10785;50.674;17.954;2022-08-20T14:38:20;26.00;99.90
21255;DHT22;10785;50.674;17.954;2022-08-20T14:40:49;25.90;99.90
21255;DHT22;10785;50.674;17.954;2022-08-20T14:43:18;25.90;99.90
21255;DHT22;10785;50.674;17.954;2022-08-20T14:45:46;25.80;99.90
21255;DHT22;10785;50.674;17.954;2022-08-20T14:48:15;25.80;99.90
21255;DHT22;10785;50.674;17.954;2022-08-20T14:50:45;25.70;99.90
21255;DHT22;10785;50.674;17.954;2022-08-20T14:53:14;25.50;99.90
21255;DHT22;10785;50.674;17.954;2022-08-20T14:55:43;25.50;99.90
21255;DHT22;10785;50.674;17.954;2022-08-20T14:58:13;25.40;99.90
21255;DHT22;10785;50.674;17.954;2022-08-20T15:00:43;25.20;99.90
21255;DHT22;10785;50.674;17.954;2022-08-20T15:03:11;25.10;99.90
21255;DHT22;10785;50.674;17.954;2022-08-20T15:05:40;24.90;99.90
21255;DHT22;10785;50.674;17.954;2022-08-20T15:08:11;24.80;99.90
21255;DHT22;10785;50.674;17.954;2022-08-20T15:10:40;24.70;99.90
21255;DHT22;10785;50.674;17.954;2022-08-20T15:13:09;24.60;99.90
21255;DHT22;10785;50.674;17.954;2022-08-20T15:15:38;24.50;99.90
21255;DHT22;10785;50.674;17.954;2022-08-20T15:18:07;24.40;99.90
21255;DHT22;10785;50.674;17.954;2022-08-20T15:20:36;24.30;99.90
21255;DHT22;10785;50.674;17.954;2022-08-20T15:23:06;24.30;99.90
21255;DHT22;10785;50.674;17.954;2022-08-20T15:25:36;24.20;99.90
21255;DHT22;10785;50.674;17.954;2022-08-20T15:28:06;24.10;99.90
21255;DHT22;10785;50.674;17.954;2022-08-20T15:30:37;24.00;99.90
21255;DHT22;10785;50.674;17.954;2022-08-20T15:33:06;23.90;99.90
21255;DHT22;10785;50.674;17.954;2022-08-20T15:35:35;23.80;99.90
21255;DHT22;10785;50.674;17.954;2022-08-20T15:38:04;23.80;99.90